Norwegian Star — C6FR3 — position and weather

sailwx.info

Track history (hours):
 
Tides and Currents Weather Stations Pressure Air Temp Water Temp Dewpoint Dewpoint Depression Visibility Wind Speed Wind Dir Waves Ship Positions

Norwegian Star

Operator: Norwegian Cruise Line

Last reported at 2017-May-25 03:00 UTC. Time now 2017-May-25 03:01 UTC.
Position N 37°55' E 023°36'.

Type: Passenger vessel. MMSI: 311082000.

Date/timePositionNaut miles runAvg speedWind from/ knotsBaromVisibWave heightAir tempDewpointWater temp
2017-May-25 03:00N 37°55' E 023°36'611.9
2017-May-25 02:30N 37°50' E 023°40'1019.5
2017-May-25 02:00N 37°41' E 023°45'1020.2
2017-May-25 01:30N 37°31' E 023°45'1020.3
2017-May-25 01:00N 37°21' E 023°41'1020.1
2017-May-25 00:30N 37°12' E 023°38'1020.3
2017-May-25 00:00N 37°02' E 023°36'2720.2
2017-May-24 22:42N 36°37' E 023°23'6317.1
2017-May-24 19:00N 36°24' E 022°06'124 8.4 320 / 151016.0 20.0
2017-May-24 04:12N 37°57' E 020°23'2121.3
2017-May-24 03:14N 38°15' E 020°10'521.4
2017-May-24 02:59N 38°19' E 020°07'7121.7
2017-May-23 23:42N 39°22' E 019°23'523.1
2017-May-23 23:30N 39°26' E 019°21'1323.0
2017-May-23 22:57N 39°37' E 019°13'1022.9
2017-May-23 22:30N 39°46' E 019°06'4429.2
2017-May-23 21:00N 40°30' E 019°00'152 4.1 220 / 71016.0 20.0
2017-May-22 08:00N 42°36' E 017°06'13817.3 320 / 61018.010.8 20.0
2017-May-22 00:00N 43°48' E 014°24'3419.3 350 / 111016.0 5.4 18.6 19.0
2017-May-21 22:15N 44°14' E 013°54'1419.2
2017-May-21 21:30N 44°26' E 013°43'919.2
2017-May-21 21:00N 44°34' E 013°36'919.1
2017-May-21 20:30N 44°42' E 013°29'1019.4
2017-May-21 20:00N 44°50' E 013°21'5290.4
2017-May-21 20:00N 44°54' E 013°18'510.5 180 / 91018.0 21.0
2017-May-21 19:30N 44°57' E 013°13'1019.4
2017-May-21 19:01N 45°04' E 013°03'918.9
2017-May-21 18:30N 45°11' E 012°54'918.8
2017-May-21 18:01N 45°17' E 012°44'918.7
2017-May-21 17:30N 45°22' E 012°32'613.0
2017-May-21 17:00N 45°26' E 012°24'3 5.8
2017-May-21 16:30N 45°26' E 012°20'1 2.7
2017-May-21 16:00N 45°26' E 012°19'0 0.0
2017-May-21 15:28N 45°26' E 012°19'0 0.0
2017-May-21 14:58N 45°26' E 012°19'0 0.0
2017-May-21 14:28N 45°26' E 012°19'0 0.0
2017-May-21 13:28N 45°26' E 012°19'0 0.0
2017-May-21 12:58N 45°26' E 012°19'0 0.0
2017-May-21 12:28N 45°26' E 012°19'0 0.0
2017-May-21 11:58N 45°26' E 012°19'0 0.0
2017-May-21 11:28N 45°26' E 012°19'0 0.0
2017-May-21 10:55N 45°26' E 012°19'0 0.0
2017-May-21 10:28N 45°26' E 012°19'0 0.0
2017-May-21 09:58N 45°26' E 012°19'0 0.0
2017-May-21 09:28N 45°26' E 012°19'0 0.0
2017-May-21 08:58N 45°26' E 012°19'0 0.0
2017-May-21 08:28N 45°26' E 012°19'0 0.0
2017-May-21 07:58N 45°26' E 012°19'0 0.0
2017-May-21 07:28N 45°26' E 012°19'0 0.0
2017-May-21 06:55N 45°26' E 012°19'0 0.0
2017-May-21 06:28N 45°26' E 012°19'0 0.0
2017-May-21 05:58N 45°26' E 012°19'0 0.0
2017-May-21 05:28N 45°26' E 012°19'0 0.0
2017-May-21 05:00N 45°26' E 012°19'0 0.7
2017-May-21 04:30N 45°26' E 012°19'3 5.2
2017-May-21 04:00N 45°25' E 012°22'4 7.1
2017-May-21 03:30N 45°25' E 012°27'815.8
2017-May-21 03:00N 45°21' E 012°37'1019.6
2017-May-21 02:30N 45°15' E 012°48'1019.8
2017-May-21 02:01N 45°09' E 012°59'1019.6
2017-May-21 01:30N 45°02' E 013°10'1019.8
2017-May-21 01:00N 44°56' E 013°21'1020.0
2017-May-21 00:30N 44°48' E 013°29'1020.4
2017-May-21 00:00N 44°39' E 013°36'1020.6
2017-May-20 23:30N 44°31' E 013°44'1020.4
2017-May-20 23:00N 44°22' E 013°52'1020.3
2017-May-20 22:31N 44°14' E 014°01'1020.3
2017-May-20 22:00N 44°06' E 014°08'1020.2
2017-May-20 21:30N 43°58' E 014°17'2818.6
2017-May-20 20:00N 43°36' E 014°42'6120.2 050 / 201014.0 17.0
2017-May-20 17:00N 42°54' E 015°42'126 7.9 280 / 351013.010.8 17.8 18.0
2017-May-20 01:00N 41°54' E 018°12'6215.4 100 / 171012.0 5.4 19.1 20.0
2017-May-19 21:00N 40°54' E 018°30'14314.3 220 / 51015.0 20.0
2017-May-19 11:00N 38°42' E 019°42'11716.7 350 / 181015.0 5.4 20.6 20.0
2017-May-19 04:00N 37°00' E 020°54'1918.7 010 / 181016.010.8 19.3 19.0
2017-May-19 03:00N 36°48' E 021°12'65 9.3 350 / 131012.0 5.4 19.016.019.0
2017-May-18 20:00N 36°18' E 022°24'12824.6 350 / 331011.5 18.0
2017-May-18 14:46N 37°14' E 024°48'517.6
2017-May-18 14:30N 37°17' E 024°52'1817.9
2017-May-18 13:30N 37°27' E 025°11'612.4
2017-May-18 13:00N 37°27' E 025°19'0 0.2
2017-May-18 12:28N 37°27' E 025°19'0 0.0
2017-May-18 11:58N 37°27' E 025°19'0 0.0
2017-May-18 11:28N 37°27' E 025°19'0 0.0
2017-May-18 10:55N 37°27' E 025°19'0 0.1
2017-May-18 10:28N 37°27' E 025°19'0 0.0
2017-May-18 09:55N 37°27' E 025°19'11 1.6
2017-May-18 02:44N 37°22' E 025°07'410.4
2017-May-18 02:23N 37°18' E 025°05'410.8
2017-May-18 02:01N 37°15' E 025°03'510.8
2017-May-18 01:31N 37°10' E 024°60'57 3.1
2017-May-17 07:00N 36°18' E 024°30'21819.8 320 / 121013.010.8 20.0
2017-May-16 20:00N 37°42' E 020°18'304 8.5 050 / 101018.010.8 18.0 18.0
2017-May-15 08:00N 42°24' E 017°48'   090 / 21019.010.8 19.0
Track history (hours):
 
Tides and Currents Weather Stations Pressure Air Temp Water Temp Dewpoint Dewpoint Depression Visibility Wind Speed Wind Dir Waves Ship Positions

Norwegian Star

Operator: Norwegian Cruise Line

Last reported at 2017-May-25 03:00 UTC. Time now 2017-May-25 03:01 UTC.
Position N 37°55' E 023°36'.

Type: Passenger vessel. MMSI: 311082000.

Date/timePositionNaut miles runAvg speedWind from/ knotsBaromVisibWave heightAir tempDewpointWater temp
2017-May-25 03:00N 37°55' E 023°36'611.9
2017-May-25 02:30N 37°50' E 023°40'1019.5
2017-May-25 02:00N 37°41' E 023°45'1020.2
2017-May-25 01:30N 37°31' E 023°45'1020.3
2017-May-25 01:00N 37°21' E 023°41'1020.1
2017-May-25 00:30N 37°12' E 023°38'1020.3
2017-May-25 00:00N 37°02' E 023°36'2720.2
2017-May-24 22:42N 36°37' E 023°23'6317.1
2017-May-24 19:00N 36°24' E 022°06'124 8.4 320 / 151016.0 20.0
2017-May-24 04:12N 37°57' E 020°23'2121.3
2017-May-24 03:14N 38°15' E 020°10'521.4
2017-May-24 02:59N 38°19' E 020°07'7121.7
2017-May-23 23:42N 39°22' E 019°23'523.1
2017-May-23 23:30N 39°26' E 019°21'1323.0
2017-May-23 22:57N 39°37' E 019°13'1022.9
2017-May-23 22:30N 39°46' E 019°06'4429.2
2017-May-23 21:00N 40°30' E 019°00'152 4.1 220 / 71016.0 20.0
2017-May-22 08:00N 42°36' E 017°06'13817.3 320 / 61018.010.8 20.0
2017-May-22 00:00N 43°48' E 014°24'3419.3 350 / 111016.0 5.4 18.6 19.0
2017-May-21 22:15N 44°14' E 013°54'1419.2
2017-May-21 21:30N 44°26' E 013°43'919.2
2017-May-21 21:00N 44°34' E 013°36'919.1
2017-May-21 20:30N 44°42' E 013°29'1019.4
2017-May-21 20:00N 44°50' E 013°21'5290.4
2017-May-21 20:00N 44°54' E 013°18'510.5 180 / 91018.0 21.0
2017-May-21 19:30N 44°57' E 013°13'1019.4
2017-May-21 19:01N 45°04' E 013°03'918.9
2017-May-21 18:30N 45°11' E 012°54'918.8
2017-May-21 18:01N 45°17' E 012°44'918.7
2017-May-21 17:30N 45°22' E 012°32'613.0
2017-May-21 17:00N 45°26' E 012°24'3 5.8
2017-May-21 16:30N 45°26' E 012°20'1 2.7
2017-May-21 16:00N 45°26' E 012°19'0 0.0
2017-May-21 15:28N 45°26' E 012°19'0 0.0
2017-May-21 14:58N 45°26' E 012°19'0 0.0
2017-May-21 14:28N 45°26' E 012°19'0 0.0
2017-May-21 13:28N 45°26' E 012°19'0 0.0
2017-May-21 12:58N 45°26' E 012°19'0 0.0
2017-May-21 12:28N 45°26' E 012°19'0 0.0
2017-May-21 11:58N 45°26' E 012°19'0 0.0
2017-May-21 11:28N 45°26' E 012°19'0 0.0
2017-May-21 10:55N 45°26' E 012°19'0 0.0
2017-May-21 10:28N 45°26' E 012°19'0 0.0
2017-May-21 09:58N 45°26' E 012°19'0 0.0
2017-May-21 09:28N 45°26' E 012°19'0 0.0
2017-May-21 08:58N 45°26' E 012°19'0 0.0
2017-May-21 08:28N 45°26' E 012°19'0 0.0
2017-May-21 07:58N 45°26' E 012°19'0 0.0
2017-May-21 07:28N 45°26' E 012°19'0 0.0
2017-May-21 06:55N 45°26' E 012°19'0 0.0
2017-May-21 06:28N 45°26' E 012°19'0 0.0
2017-May-21 05:58N 45°26' E 012°19'0 0.0
2017-May-21 05:28N 45°26' E 012°19'0 0.0
2017-May-21 05:00N 45°26' E 012°19'0 0.7
2017-May-21 04:30N 45°26' E 012°19'3 5.2
2017-May-21 04:00N 45°25' E 012°22'4 7.1
2017-May-21 03:30N 45°25' E 012°27'815.8
2017-May-21 03:00N 45°21' E 012°37'1019.6
2017-May-21 02:30N 45°15' E 012°48'1019.8
2017-May-21 02:01N 45°09' E 012°59'1019.6
2017-May-21 01:30N 45°02' E 013°10'1019.8
2017-May-21 01:00N 44°56' E 013°21'1020.0
2017-May-21 00:30N 44°48' E 013°29'1020.4
2017-May-21 00:00N 44°39' E 013°36'1020.6
2017-May-20 23:30N 44°31' E 013°44'1020.4
2017-May-20 23:00N 44°22' E 013°52'1020.3
2017-May-20 22:31N 44°14' E 014°01'1020.3
2017-May-20 22:00N 44°06' E 014°08'1020.2
2017-May-20 21:30N 43°58' E 014°17'2818.6
2017-May-20 20:00N 43°36' E 014°42'6120.2 050 / 201014.0 17.0
2017-May-20 17:00N 42°54' E 015°42'126 7.9 280 / 351013.010.8 17.8 18.0
2017-May-20 01:00N 41°54' E 018°12'6215.4 100 / 171012.0 5.4 19.1 20.0
2017-May-19 21:00N 40°54' E 018°30'14314.3 220 / 51015.0 20.0
2017-May-19 11:00N 38°42' E 019°42'11716.7 350 / 181015.0 5.4 20.6 20.0
2017-May-19 04:00N 37°00' E 020°54'1918.7 010 / 181016.010.8 19.3 19.0
2017-May-19 03:00N 36°48' E 021°12'65 9.3 350 / 131012.0 5.4 19.016.019.0
2017-May-18 20:00N 36°18' E 022°24'12824.6 350 / 331011.5 18.0
2017-May-18 14:46N 37°14' E 024°48'517.6
2017-May-18 14:30N 37°17' E 024°52'1817.9
2017-May-18 13:30N 37°27' E 025°11'612.4
2017-May-18 13:00N 37°27' E 025°19'0 0.2
2017-May-18 12:28N 37°27' E 025°19'0 0.0
2017-May-18 11:58N 37°27' E 025°19'0 0.0
2017-May-18 11:28N 37°27' E 025°19'0 0.0
2017-May-18 10:55N 37°27' E 025°19'0 0.1
2017-May-18 10:28N 37°27' E 025°19'0 0.0
2017-May-18 09:55N 37°27' E 025°19'11 1.6
2017-May-18 02:44N 37°22' E 025°07'410.4
2017-May-18 02:23N 37°18' E 025°05'410.8
2017-May-18 02:01N 37°15' E 025°03'510.8
2017-May-18 01:31N 37°10' E 024°60'57 3.1
2017-May-17 07:00N 36°18' E 024°30'21819.8 320 / 121013.010.8 20.0
2017-May-16 20:00N 37°42' E 020°18'304 8.5 050 / 101018.010.8 18.0 18.0
2017-May-15 08:00N 42°24' E 017°48'   090 / 21019.010.8 19.0

Dump ship's entire track history